createdAt,value
2019-02-14T00:07:47.036Z,67.47
2019-02-14T00:10:17.464Z,67.42
2019-02-14T00:12:47.866Z,67.25
2019-02-14T00:15:18.244Z,67.16
2019-02-14T00:17:48.800Z,67.11
2019-02-14T00:20:19.270Z,67.13
2019-02-14T00:25:31.246Z,66.97
2019-02-14T00:30:56.594Z,66.81
2019-02-14T00:33:27.174Z,66.37
2019-02-14T00:35:57.558Z,66.37
2019-02-14T00:38:27.948Z,66.57
2019-02-14T00:40:58.299Z,66.57
2019-02-14T00:43:31.029Z,66.61
2019-02-14T00:46:01.694Z,66.40
2019-02-14T00:48:32.081Z,66.35
2019-02-14T00:51:21.788Z,66.19
2019-02-14T00:53:52.165Z,66.07
2019-02-14T00:56:22.513Z,66.06
2019-02-14T00:59:17.824Z,66.31
2019-02-14T01:01:48.436Z,66.26
2019-02-14T01:07:25.946Z,65.90
2019-02-14T01:12:58.540Z,65.84
2019-02-14T01:18:25.462Z,65.94
2019-02-14T01:21:22.037Z,65.85
2019-02-14T01:26:55.259Z,66.15
2019-02-14T01:32:09.160Z,66.52
2019-02-14T01:37:34.014Z,66.47
2019-02-14T01:42:48.240Z,66.66
2019-02-14T01:45:18.723Z,66.51
2019-02-14T01:53:54.793Z,66.64
2019-02-14T02:02:18.021Z,66.74
2019-02-14T02:04:48.428Z,66.67
2019-02-14T02:07:40.347Z,66.69
2019-02-14T02:10:12.086Z,66.74
2019-02-14T02:12:42.533Z,66.78
2019-02-14T02:15:31.816Z,66.72
2019-02-14T02:18:02.509Z,66.80
2019-02-14T02:24:04.801Z,66.79
2019-02-14T02:26:55.753Z,66.72
2019-02-14T02:29:45.070Z,66.72
2019-02-14T02:35:19.455Z,67.00
2019-02-14T02:37:50.065Z,66.97
2019-02-14T02:40:21.684Z,66.91
2019-02-14T02:45:54.365Z,66.98
2019-02-14T02:48:24.788Z,67.00
2019-02-14T02:51:14.069Z,67.04
2019-02-14T02:53:44.547Z,66.87
2019-02-14T02:56:52.881Z,67.01
2019-02-14T02:59:23.253Z,67.14
2019-02-14T03:04:49.963Z,67.00
2019-02-14T03:07:20.419Z,67.10
2019-02-14T03:19:11.573Z,67.66
2019-02-14T03:31:26.427Z,67.69
2019-02-14T03:33:56.960Z,67.85
2019-02-14T03:36:47.859Z,68.02
2019-02-14T03:39:18.265Z,67.95
2019-02-14T03:42:26.745Z,68.05
2019-02-14T03:44:57.401Z,68.14
2019-02-14T03:47:27.822Z,68.38
2019-02-14T03:49:58.696Z,68.44
2019-02-14T03:55:31.505Z,68.54
2019-02-14T03:58:01.891Z,68.67
2019-02-14T04:03:44.838Z,68.94
2019-02-14T04:06:35.747Z,69.03
2019-02-14T04:09:47.033Z,69.08
2019-02-14T04:12:28.352Z,69.30
2019-02-14T04:15:17.797Z,69.37
2019-02-14T04:21:11.007Z,69.62
2019-02-14T04:23:41.418Z,69.47
2019-02-14T04:26:32.282Z,69.64
2019-02-14T04:29:02.740Z,69.70
2019-02-14T04:34:39.296Z,70.01
2019-02-14T04:37:09.722Z,70.03
2019-02-14T04:39:40.626Z,69.82
2019-02-14T04:42:30.685Z,69.78
2019-02-14T04:45:12.423Z,69.70
2019-02-14T04:50:23.318Z,69.63
2019-02-14T04:56:07.859Z,70.22
2019-02-14T04:58:57.295Z,70.35
2019-02-14T05:04:31.353Z,70.71
2019-02-14T05:07:20.613Z,70.80
2019-02-14T05:12:57.641Z,70.90
2019-02-14T05:15:47.322Z,71.03
2019-02-14T05:27:06.038Z,71.29
2019-02-14T05:29:36.484Z,71.22
2019-02-14T05:35:40.923Z,71.29
2019-02-14T05:41:16.233Z,71.14
2019-02-14T05:43:47.339Z,70.94
2019-02-14T05:46:17.720Z,70.99
2019-02-14T05:51:50.441Z,71.10
2019-02-14T05:54:40.668Z,71.32
2019-02-14T05:57:11.426Z,71.36
2019-02-14T06:00:02.370Z,71.21
2019-02-14T06:02:32.967Z,71.19
2019-02-14T06:11:04.046Z,71.44
2019-02-14T06:16:18.047Z,71.27
2019-02-14T06:21:37.930Z,71.42
2019-02-14T06:24:08.485Z,71.42
2019-02-14T06:29:42.242Z,71.18
2019-02-14T06:37:56.847Z,71.31
2019-02-14T06:40:27.286Z,71.10
2019-02-14T06:45:44.302Z,71.29
2019-02-14T06:50:56.845Z,71.63
2019-02-14T06:53:46.228Z,71.69
2019-02-14T06:59:20.718Z,71.67
2019-02-14T07:01:51.408Z,71.55
2019-02-14T07:07:45.914Z,71.41
2019-02-14T07:10:16.703Z,71.41
2019-02-14T07:12:47.265Z,71.53
2019-02-14T07:15:17.783Z,71.72
2019-02-14T07:20:51.036Z,71.80
2019-02-14T07:32:36.419Z,71.42
2019-02-14T07:35:27.708Z,71.15
2019-02-14T07:38:09.547Z,71.40
2019-02-14T07:40:51.326Z,71.03
2019-02-14T07:55:12.463Z,69.87
2019-02-14T07:57:54.690Z,69.80
2019-02-14T08:00:25.196Z,69.85
2019-02-14T08:03:16.911Z,69.87
2019-02-14T08:06:07.983Z,69.69
2019-02-14T08:08:59.117Z,69.35
2019-02-14T08:11:32.814Z,69.14
2019-02-14T08:14:04.242Z,69.23
2019-02-14T08:19:49.001Z,69.01
2019-02-14T08:23:05.249Z,68.75
2019-02-14T08:34:17.799Z,66.37
2019-02-14T08:39:52.857Z,65.04
2019-02-14T08:45:35.186Z,63.77
2019-02-14T08:54:22.685Z,62.46
2019-02-14T08:56:53.374Z,62.26
2019-02-14T08:59:45.249Z,61.21
2019-02-14T09:05:18.310Z,60.75
2019-02-14T09:10:52.275Z,59.67
2019-02-14T09:13:43.306Z,59.78
2019-02-14T09:16:32.696Z,59.51
2019-02-14T09:19:04.064Z,59.68
2019-02-14T09:21:53.504Z,59.38
2019-02-14T09:24:24.106Z,58.81
2019-02-14T09:27:07.912Z,58.81
2019-02-14T09:32:44.071Z,57.98
2019-02-14T09:35:14.756Z,57.05
2019-02-14T09:37:45.402Z,56.51
2019-02-14T09:40:35.253Z,55.80
2019-02-14T09:49:05.041Z,54.78
2019-02-14T09:51:47.748Z,54.90
2019-02-14T09:57:22.993Z,53.38
2019-02-14T09:59:53.401Z,53.05
2019-02-14T10:02:25.710Z,53.41
2019-02-14T10:08:18.005Z,52.44
2019-02-14T10:10:48.412Z,52.70
2019-02-14T10:13:19.010Z,52.15
2019-02-14T10:18:31.058Z,52.13
2019-02-14T10:21:59.752Z,51.86
2019-02-14T10:27:38.380Z,51.19
2019-02-14T10:30:15.075Z,51.37
2019-02-14T10:32:45.466Z,51.62
2019-02-14T10:35:27.946Z,51.27
2019-02-14T10:41:13.664Z,50.32
2019-02-14T10:46:46.491Z,50.22
2019-02-14T10:49:36.128Z,49.39
2019-02-14T10:52:19.835Z,48.97
2019-02-14T10:54:50.257Z,48.27
2019-02-14T10:57:20.754Z,48.16
2019-02-14T11:08:31.322Z,46.40
2019-02-14T11:11:11.332Z,45.74
2019-02-14T11:16:44.355Z,45.54
2019-02-14T11:19:20.026Z,45.45
2019-02-14T11:21:50.766Z,45.42
2019-02-14T11:24:40.034Z,45.43
2019-02-14T11:30:06.024Z,45.89
2019-02-14T11:32:36.483Z,45.85
2019-02-14T11:35:19.211Z,45.22
2019-02-14T11:37:50.052Z,44.35
2019-02-14T11:40:20.892Z,44.34
2019-02-14T11:42:51.314Z,44.32
2019-02-14T11:45:21.942Z,43.64
2019-02-14T11:48:12.854Z,43.74
2019-02-14T11:50:54.663Z,43.65
2019-02-14T11:53:25.339Z,43.76
2019-02-14T11:55:57.334Z,43.18
2019-02-14T12:04:25.425Z,41.69
2019-02-14T12:10:25.972Z,42.11
2019-02-14T12:12:56.444Z,40.42
2019-02-14T12:15:26.874Z,40.04
2019-02-14T12:24:04.004Z,38.70
2019-02-14T12:42:07.126Z,34.37
2019-02-14T12:44:40.030Z,33.42
2019-02-14T12:53:30.853Z,34.30
2019-02-14T12:59:05.038Z,35.05
2019-02-14T13:01:37.894Z,33.42
2019-02-14T13:04:08.621Z,32.89
2019-02-14T13:06:38.989Z,32.81
2019-02-14T13:09:19.502Z,32.91
2019-02-14T13:12:20.870Z,32.93
2019-02-14T13:14:51.436Z,32.40
2019-02-14T13:17:21.904Z,32.88
2019-02-14T13:29:00.426Z,30.66
2019-02-14T13:34:12.358Z,30.72
2019-02-14T13:39:45.500Z,29.35
2019-02-14T13:45:25.745Z,27.38
2019-02-14T13:47:56.255Z,26.35
2019-02-14T13:50:26.746Z,26.02
2019-02-14T13:55:59.670Z,26.53
2019-02-14T13:58:30.159Z,25.94
2019-02-14T14:04:04.662Z,25.73
2019-02-14T14:09:16.968Z,28.86
2019-02-14T14:11:47.430Z,28.23
2019-02-14T14:14:17.820Z,27.67
2019-02-14T14:16:48.486Z,27.35
2019-02-14T14:19:19.156Z,29.99
2019-02-14T14:21:49.625Z,30.18
2019-02-14T14:24:20.041Z,31.31
2019-02-14T14:26:52.625Z,32.38
2019-02-14T14:29:28.744Z,30.12
2019-02-14T14:35:14.262Z,30.62
2019-02-14T14:37:44.808Z,30.91
2019-02-14T14:46:35.224Z,30.49
2019-02-14T14:49:05.674Z,30.46
2019-02-14T14:54:25.706Z,30.64
2019-02-14T14:57:17.090Z,30.24
2019-02-14T15:03:09.560Z,30.51
2019-02-14T15:05:40.233Z,31.02
2019-02-14T15:08:31.194Z,31.02
2019-02-14T15:11:03.193Z,30.79
2019-02-14T15:13:35.875Z,31.41
2019-02-14T15:16:06.924Z,30.83
2019-02-14T15:18:56.672Z,30.95
2019-02-14T15:21:47.528Z,30.96
2019-02-14T15:27:39.617Z,31.65
2019-02-14T15:30:30.778Z,31.33
2019-02-14T15:33:01.639Z,31.55
2019-02-14T15:35:34.291Z,30.93
2019-02-14T15:38:05.050Z,30.67
2019-02-14T15:40:42.302Z,30.86
2019-02-14T15:43:12.721Z,30.18
2019-02-14T15:45:43.679Z,30.01
2019-02-14T15:48:26.392Z,29.89
2019-02-14T15:51:17.642Z,29.91
2019-02-14T15:59:43.494Z,30.45
2019-02-14T16:02:33.163Z,30.59
2019-02-14T16:05:19.092Z,30.84
2019-02-14T16:11:14.415Z,30.89
2019-02-14T16:23:20.119Z,31.29
2019-02-14T16:25:51.971Z,30.97
2019-02-14T16:29:02.084Z,30.83
2019-02-14T16:31:46.679Z,30.90
2019-02-14T16:37:00.603Z,31.18
2019-02-14T16:39:31.167Z,31.53
2019-02-14T16:42:42.177Z,31.83
2019-02-14T16:45:20.211Z,31.87
2019-02-14T16:50:46.282Z,32.08
2019-02-14T16:53:37.282Z,32.11
2019-02-14T16:59:10.233Z,32.96
2019-02-14T17:04:44.050Z,32.27
2019-02-14T17:15:59.298Z,31.48
2019-02-14T17:18:48.905Z,31.62
2019-02-14T17:21:19.834Z,31.89
2019-02-14T17:23:50.252Z,31.40
2019-02-14T17:26:20.804Z,31.70
2019-02-14T17:28:51.545Z,31.19
2019-02-14T17:31:40.977Z,31.39
2019-02-14T17:34:11.462Z,32.09
2019-02-14T17:36:42.271Z,31.99
2019-02-14T17:39:40.926Z,31.79
2019-02-14T17:42:11.495Z,32.42
2019-02-14T17:50:28.714Z,32.04
2019-02-14T17:53:19.689Z,32.22
2019-02-14T17:56:09.198Z,32.35
2019-02-14T17:58:45.597Z,32.83
2019-02-14T18:01:15.984Z,32.74
2019-02-14T18:03:59.341Z,33.21
2019-02-14T18:12:20.278Z,32.92
2019-02-14T18:15:49.985Z,33.63
2019-02-14T18:21:06.821Z,33.11
2019-02-14T18:23:38.687Z,33.43
2019-02-14T18:26:09.259Z,33.83
2019-02-14T18:31:45.562Z,33.82
2019-02-14T18:40:02.515Z,34.18
2019-02-14T18:42:33.059Z,34.47
2019-02-14T18:45:04.078Z,34.35
2019-02-14T18:47:39.641Z,34.83
2019-02-14T18:53:02.813Z,35.05
2019-02-14T18:55:33.496Z,34.71
2019-02-14T19:01:28.846Z,35.16
2019-02-14T19:03:59.420Z,35.31
2019-02-14T19:06:29.757Z,35.52
2019-02-14T19:09:00.445Z,35.41
2019-02-14T19:14:33.412Z,35.10
2019-02-14T19:17:03.868Z,35.43
2019-02-14T19:19:34.366Z,35.82
2019-02-14T19:22:26.025Z,36.04
2019-02-14T19:25:19.413Z,35.30
2019-02-14T19:28:01.197Z,35.78
2019-02-14T19:30:31.566Z,35.92
2019-02-14T19:33:06.042Z,35.79
2019-02-14T19:35:36.570Z,35.90
2019-02-14T19:38:28.891Z,35.46
2019-02-14T19:41:25.115Z,35.85
2019-02-14T19:47:02.503Z,35.48
2019-02-14T19:49:33.128Z,35.45
2019-02-14T19:54:47.999Z,35.88
2019-02-14T19:57:18.662Z,36.29
2019-02-14T19:59:49.108Z,36.19
2019-02-14T20:02:38.688Z,36.20
2019-02-14T20:05:48.988Z,36.20
2019-02-14T20:08:31.084Z,36.48
2019-02-14T20:11:01.976Z,36.62
2019-02-14T20:13:35.459Z,37.00
2019-02-14T20:16:17.374Z,37.07
2019-02-14T20:18:48.025Z,37.11
2019-02-14T20:27:09.893Z,37.83
2019-02-14T20:29:40.400Z,37.54
2019-02-14T20:32:11.463Z,37.66
2019-02-14T20:35:02.453Z,37.93
2019-02-14T20:37:32.864Z,38.00
2019-02-14T20:42:44.124Z,38.10
2019-02-14T20:45:34.414Z,38.78
2019-02-14T20:50:45.009Z,38.98
2019-02-14T20:53:34.448Z,39.20
2019-02-14T20:59:07.448Z,39.31
2019-02-14T21:01:38.219Z,39.43
2019-02-14T21:04:08.714Z,39.74
2019-02-14T21:15:46.984Z,39.89
2019-02-14T21:18:17.757Z,39.89
2019-02-14T21:21:07.294Z,40.11
2019-02-14T21:23:49.165Z,40.21
2019-02-14T21:26:20.143Z,40.69
2019-02-14T21:31:52.751Z,41.09
2019-02-14T21:34:43.801Z,40.72
2019-02-14T21:37:14.340Z,41.06
2019-02-14T21:40:05.850Z,41.20
2019-02-14T21:42:43.093Z,41.43
2019-02-14T21:48:18.821Z,41.87
2019-02-14T21:51:10.267Z,41.64
2019-02-14T21:56:44.204Z,41.58
2019-02-14T21:59:35.219Z,42.13
2019-02-14T22:02:16.942Z,41.83
2019-02-14T22:10:35.436Z,41.95
2019-02-14T22:19:11.946Z,41.45
2019-02-14T22:22:41.233Z,41.74
2019-02-14T22:25:49.550Z,41.63
2019-02-14T22:35:40.382Z,41.41
2019-02-14T22:38:31.171Z,41.37
2019-02-14T22:41:22.054Z,41.30
2019-02-14T22:46:55.853Z,41.40
2019-02-14T22:49:27.972Z,41.32
2019-02-14T22:52:09.471Z,41.57
2019-02-14T22:54:39.935Z,41.57
2019-02-14T22:57:17.269Z,41.64
2019-02-14T22:59:49.243Z,41.93
2019-02-14T23:05:42.730Z,42.08
2019-02-14T23:08:25.851Z,42.17
2019-02-14T23:10:56.756Z,42.19
2019-02-14T23:13:27.402Z,42.25
2019-02-14T23:19:02.704Z,42.33
2019-02-14T23:30:33.116Z,42.10
2019-02-14T23:33:03.573Z,42.13
2019-02-14T23:35:34.060Z,42.10
2019-02-14T23:38:04.712Z,42.18
2019-02-14T23:40:55.599Z,42.20
2019-02-14T23:43:25.976Z,42.05
2019-02-14T23:45:56.645Z,41.85
2019-02-14T23:48:26.971Z,41.79
2019-02-14T23:51:16.393Z,41.50
2019-02-14T23:54:07.082Z,41.42
2019-02-14T23:59:38.320Z,40.98
